RJGG METAR and TAF | Updated Today

RJGG METAR

Chubu Centrair International Airport

Observation time: 25 min. ago

RJGG 292030Z AUTO 25010KT 9999 -RA SCT048 OVC050 20/20 Q1008 BECMG 28008KT

Need help? Read our tutorial on how to read METARs or read the parsed version below.

Chubu Centrair International Airport (RJGG) METAR

  • Weather conditions on Mon, 29 May 2023 20:30:00 +0000 (25 min. ago):
  • Present conditions: Light rain
  • Clouds: Scattered at 1463 meters; overcast sky at 1524 meters
  • Visibility: Greater than 10 km
  • Wind: 250 degrees at 10 knots
  • Temperature: 20 celsius
  • Dew point: 20 celsius
  • Pressure: 1008 millibars
  • Remarks: None


Useful to know...

RJGG TAF

Chubu Centrair International Airport

TAF AMD RJGG 291937Z 2919/3100 30008KT 8000 -SHRA FEW015 BKN030 BECMG 3002/3004 22008KT BECMG 3009/3012 32008KT
Observation time: 78 min. ago
Need help? Read our tutorial on how to read TAFs or read the parsed version below.

Parsed version of TAF for Chubu Centrair International Airport (RJGG)

  • From 29 May at 19:00 UTC, to day 31 of the month at 00:00 UTC
  • Clouds: A few at 457 meters; broken sky at 914 meters
  • Visibility: 8000 meters
  • Wind: 300 degrees at 8
  • Other: Light showers of rain
  • Expected to arise soon, from 30 May at 02:00 UTC, to day 30 of the month at 04:00 UTC
  • Wind: 220 degrees at 8
  • Expected to arise soon, from 30 May at 09:00 UTC, to day 30 of the month at 12:00 UTC
  • Wind: 320 degrees at 8